sensor_id;sensor_type;location;lat;lon;timestamp;P1;durP1;ratioP1;P2;durP2;ratioP2
11171;SDS011;5642;50.830;12.082;2023-03-15T00:00:47;2.00;;;1.20;;
11171;SDS011;5642;50.830;12.082;2023-03-15T00:03:14;2.25;;;1.08;;
11171;SDS011;5642;50.830;12.082;2023-03-15T00:05:41;1.30;;;1.00;;
11171;SDS011;5642;50.830;12.082;2023-03-15T00:08:08;1.38;;;1.10;;
11171;SDS011;5642;50.830;12.082;2023-03-15T00:10:34;2.28;;;1.20;;
11171;SDS011;5642;50.830;12.082;2023-03-15T00:13:00;1.63;;;0.85;;
11171;SDS011;5642;50.830;12.082;2023-03-15T00:15:26;3.05;;;0.90;;
11171;SDS011;5642;50.830;12.082;2023-03-15T00:17:53;1.17;;;1.05;;
11171;SDS011;5642;50.830;12.082;2023-03-15T00:20:19;1.67;;;0.90;;
11171;SDS011;5642;50.830;12.082;2023-03-15T00:22:45;1.65;;;0.98;;
11171;SDS011;5642;50.830;12.082;2023-03-15T00:25:11;2.33;;;1.23;;
11171;SDS011;5642;50.830;12.082;2023-03-15T00:27:37;1.23;;;0.95;;
11171;SDS011;5642;50.830;12.082;2023-03-15T00:30:04;2.22;;;1.02;;
11171;SDS011;5642;50.830;12.082;2023-03-15T00:32:31;1.48;;;1.05;;
11171;SDS011;5642;50.830;12.082;2023-03-15T00:34:57;1.10;;;1.00;;
11171;SDS011;5642;50.830;12.082;2023-03-15T00:37:23;1.13;;;1.02;;
11171;SDS011;5642;50.830;12.082;2023-03-15T00:39:50;1.73;;;1.08;;
11171;SDS011;5642;50.830;12.082;2023-03-15T00:42:20;1.13;;;0.90;;
11171;SDS011;5642;50.830;12.082;2023-03-15T00:44:46;2.03;;;1.17;;
11171;SDS011;5642;50.830;12.082;2023-03-15T00:47:13;1.02;;;0.68;;
11171;SDS011;5642;50.830;12.082;2023-03-15T00:49:40;1.65;;;0.82;;
11171;SDS011;5642;50.830;12.082;2023-03-15T00:52:09;1.17;;;1.00;;
11171;SDS011;5642;50.830;12.082;2023-03-15T00:54:37;2.17;;;0.98;;
11171;SDS011;5642;50.830;12.082;2023-03-15T00:57:03;2.75;;;1.17;;
11171;SDS011;5642;50.830;12.082;2023-03-15T00:59:30;2.35;;;0.90;;
11171;SDS011;5642;50.830;12.082;2023-03-15T01:02:01;1.65;;;1.00;;
11171;SDS011;5642;50.830;12.082;2023-03-15T01:04:27;2.53;;;0.95;;
11171;SDS011;5642;50.830;12.082;2023-03-15T01:06:53;0.98;;;0.82;;
11171;SDS011;5642;50.830;12.082;2023-03-15T01:09:20;1.30;;;1.05;;
11171;SDS011;5642;50.830;12.082;2023-03-15T01:11:47;1.40;;;0.90;;
11171;SDS011;5642;50.830;12.082;2023-03-15T01:14:14;1.25;;;1.00;;
11171;SDS011;5642;50.830;12.082;2023-03-15T01:16:40;0.80;;;0.80;;
11171;SDS011;5642;50.830;12.082;2023-03-15T01:19:07;0.93;;;0.80;;
11171;SDS011;5642;50.830;12.082;2023-03-15T01:21:34;2.15;;;1.20;;
11171;SDS011;5642;50.830;12.082;2023-03-15T01:24:00;1.00;;;0.90;;
11171;SDS011;5642;50.830;12.082;2023-03-15T01:26:26;1.65;;;1.02;;
11171;SDS011;5642;50.830;12.082;2023-03-15T01:28:53;1.00;;;0.90;;
11171;SDS011;5642;50.830;12.082;2023-03-15T04:34:43;1.27;;;0.50;;
11171;SDS011;5642;50.830;12.082;2023-03-15T04:37:10;0.83;;;0.80;;
11171;SDS011;5642;50.830;12.082;2023-03-15T04:39:36;1.33;;;0.90;;
11171;SDS011;5642;50.830;12.082;2023-03-15T04:42:03;1.37;;;0.70;;
11171;SDS011;5642;50.830;12.082;2023-03-15T04:44:30;0.73;;;0.73;;
11171;SDS011;5642;50.830;12.082;2023-03-15T04:46:55;0.83;;;0.70;;
11171;SDS011;5642;50.830;12.082;2023-03-15T04:49:22;1.30;;;0.97;;
11171;SDS011;5642;50.830;12.082;2023-03-15T04:51:48;1.07;;;0.90;;
11171;SDS011;5642;50.830;12.082;2023-03-15T04:54:15;1.20;;;0.80;;
11171;SDS011;5642;50.830;12.082;2023-03-15T04:56:41;1.23;;;0.80;;
11171;SDS011;5642;50.830;12.082;2023-03-15T04:59:07;2.17;;;0.83;;
11171;SDS011;5642;50.830;12.082;2023-03-15T05:01:35;1.07;;;0.80;;
11171;SDS011;5642;50.830;12.082;2023-03-15T05:04:03;1.57;;;0.90;;
11171;SDS011;5642;50.830;12.082;2023-03-15T05:06:33;1.70;;;0.67;;
11171;SDS011;5642;50.830;12.082;2023-03-15T05:09:00;2.17;;;0.80;;
11171;SDS011;5642;50.830;12.082;2023-03-15T05:11:28;1.00;;;0.90;;
11171;SDS011;5642;50.830;12.082;2023-03-15T05:13:55;1.70;;;0.90;;
11171;SDS011;5642;50.830;12.082;2023-03-15T05:16:21;1.37;;;1.00;;
11171;SDS011;5642;50.830;12.082;2023-03-15T05:18:48;0.77;;;0.77;;
11171;SDS011;5642;50.830;12.082;2023-03-15T05:21:16;1.17;;;0.90;;
11171;SDS011;5642;50.830;12.082;2023-03-15T05:23:42;0.87;;;0.87;;
11171;SDS011;5642;50.830;12.082;2023-03-15T05:26:11;0.80;;;0.80;;
11171;SDS011;5642;50.830;12.082;2023-03-15T05:28:38;1.93;;;0.80;;
11171;SDS011;5642;50.830;12.082;2023-03-15T05:31:04;0.73;;;0.70;;
11171;SDS011;5642;50.830;12.082;2023-03-15T05:33:30;1.60;;;0.90;;
11171;SDS011;5642;50.830;12.082;2023-03-15T07:20:56;0.85;;;0.75;;
11171;SDS011;5642;50.830;12.082;2023-03-15T07:23:27;2.63;;;1.20;;
11171;SDS011;5642;50.830;12.082;2023-03-15T07:25:56;1.52;;;1.17;;
11171;SDS011;5642;50.830;12.082;2023-03-15T07:28:25;1.88;;;1.00;;
11171;SDS011;5642;50.830;12.082;2023-03-15T07:30:56;1.60;;;1.08;;
11171;SDS011;5642;50.830;12.082;2023-03-15T07:33:27;4.07;;;1.58;;
11171;SDS011;5642;50.830;12.082;2023-03-15T07:36:04;1.92;;;1.48;;
11171;SDS011;5642;50.830;12.082;2023-03-15T07:38:37;3.67;;;1.95;;
11171;SDS011;5642;50.830;12.082;2023-03-15T07:41:05;3.25;;;1.88;;
11171;SDS011;5642;50.830;12.082;2023-03-15T07:43:35;3.65;;;2.03;;
11171;SDS011;5642;50.830;12.082;2023-03-15T07:46:06;3.50;;;2.33;;
11171;SDS011;5642;50.830;12.082;2023-03-15T07:48:35;2.63;;;1.95;;
11171;SDS011;5642;50.830;12.082;2023-03-15T07:51:06;1.88;;;1.63;;
11171;SDS011;5642;50.830;12.082;2023-03-15T07:53:39;4.28;;;1.88;;
11171;SDS011;5642;50.830;12.082;2023-03-15T07:56:15;2.88;;;2.10;;
11171;SDS011;5642;50.830;12.082;2023-03-15T07:58:46;2.90;;;1.63;;
11171;SDS011;5642;50.830;12.082;2023-03-15T08:01:18;3.75;;;1.65;;
11171;SDS011;5642;50.830;12.082;2023-03-15T08:03:51;2.28;;;1.50;;
11171;SDS011;5642;50.830;12.082;2023-03-15T08:06:20;2.25;;;1.27;;
11171;SDS011;5642;50.830;12.082;2023-03-15T08:08:56;1.77;;;1.23;;
11171;SDS011;5642;50.830;12.082;2023-03-15T08:11:27;1.45;;;1.20;;
11171;SDS011;5642;50.830;12.082;2023-03-15T08:13:55;2.28;;;1.42;;
11171;SDS011;5642;50.830;12.082;2023-03-15T08:16:22;1.60;;;1.23;;
11171;SDS011;5642;50.830;12.082;2023-03-15T08:18:50;2.10;;;1.30;;
11171;SDS011;5642;50.830;12.082;2023-03-15T09:04:48;1.27;;;0.70;;
11171;SDS011;5642;50.830;12.082;2023-03-15T09:07:14;0.60;;;0.60;;
11171;SDS011;5642;50.830;12.082;2023-03-15T09:09:42;1.08;;;0.60;;
11171;SDS011;5642;50.830;12.082;2023-03-15T09:12:17;0.75;;;0.52;;
11171;SDS011;5642;50.830;12.082;2023-03-15T09:14:44;0.60;;;0.60;;
11171;SDS011;5642;50.830;12.082;2023-03-15T09:17:11;0.65;;;0.50;;
11171;SDS011;5642;50.830;12.082;2023-03-15T09:19:44;0.50;;;0.50;;
11171;SDS011;5642;50.830;12.082;2023-03-15T09:22:15;1.00;;;0.70;;
11171;SDS011;5642;50.830;12.082;2023-03-15T09:24:45;1.15;;;0.60;;
11171;SDS011;5642;50.830;12.082;2023-03-15T09:27:13;0.95;;;0.68;;
11171;SDS011;5642;50.830;12.082;2023-03-15T09:29:43;0.80;;;0.70;;
11171;SDS011;5642;50.830;12.082;2023-03-15T09:32:21;2.20;;;0.60;;
11171;SDS011;5642;50.830;12.082;2023-03-15T09:34:54;0.60;;;0.60;;
11171;SDS011;5642;50.830;12.082;2023-03-15T09:37:28;0.63;;;0.60;;
11171;SDS011;5642;50.830;12.082;2023-03-15T09:40:12;0.98;;;0.60;;
11171;SDS011;5642;50.830;12.082;2023-03-15T09:46:32;0.60;;;0.60;;
11171;SDS011;5642;50.830;12.082;2023-03-15T09:52:25;0.55;;;0.50;;
11171;SDS011;5642;50.830;12.082;2023-03-15T09:55:14;0.70;;;0.70;;
11171;SDS011;5642;50.830;12.082;2023-03-15T10:00:43;0.50;;;0.50;;
11171;SDS011;5642;50.830;12.082;2023-03-15T10:03:26;1.23;;;0.80;;
11171;SDS011;5642;50.830;12.082;2023-03-15T10:06:00;0.80;;;0.70;;
11171;SDS011;5642;50.830;12.082;2023-03-15T10:08:34;0.63;;;0.63;;
11171;SDS011;5642;50.830;12.082;2023-03-15T10:11:05;0.60;;;0.60;;
11171;SDS011;5642;50.830;12.082;2023-03-15T10:16:51;1.40;;;0.80;;
11171;SDS011;5642;50.830;12.082;2023-03-15T10:28:07;0.50;;;0.50;;
11171;SDS011;5642;50.830;12.082;2023-03-15T10:30:46;0.50;;;0.50;;
11171;SDS011;5642;50.830;12.082;2023-03-15T10:33:25;0.65;;;0.65;;
11171;SDS011;5642;50.830;12.082;2023-03-15T10:36:19;0.50;;;0.50;;
11171;SDS011;5642;50.830;12.082;2023-03-15T10:38:49;0.47;;;0.47;;
11171;SDS011;5642;50.830;12.082;2023-03-15T10:41:27;0.70;;;0.70;;
11171;SDS011;5642;50.830;12.082;2023-03-15T10:44:01;0.60;;;0.60;;
11171;SDS011;5642;50.830;12.082;2023-03-15T10:46:30;1.35;;;0.77;;
11171;SDS011;5642;50.830;12.082;2023-03-15T10:51:41;0.60;;;0.60;;
11171;SDS011;5642;50.830;12.082;2023-03-15T10:54:17;0.95;;;0.68;;
11171;SDS011;5642;50.830;12.082;2023-03-15T10:56:59;0.57;;;0.57;;
11171;SDS011;5642;50.830;12.082;2023-03-15T10:59:30;0.60;;;0.60;;
11171;SDS011;5642;50.830;12.082;2023-03-15T11:04:42;0.70;;;0.70;;
11171;SDS011;5642;50.830;12.082;2023-03-15T11:07:13;0.45;;;0.45;;
11171;SDS011;5642;50.830;12.082;2023-03-15T11:09:44;0.43;;;0.43;;
11171;SDS011;5642;50.830;12.082;2023-03-15T11:12:27;0.88;;;0.60;;
11171;SDS011;5642;50.830;12.082;2023-03-15T11:14:56;0.50;;;0.50;;
11171;SDS011;5642;50.830;12.082;2023-03-15T11:17:43;0.43;;;0.43;;
11171;SDS011;5642;50.830;12.082;2023-03-15T11:20:28;0.40;;;0.40;;
11171;SDS011;5642;50.830;12.082;2023-03-15T11:23:05;0.30;;;0.30;;
11171;SDS011;5642;50.830;12.082;2023-03-15T11:25:43;0.63;;;0.47;;
11171;SDS011;5642;50.830;12.082;2023-03-15T11:28:14;0.40;;;0.40;;
11171;SDS011;5642;50.830;12.082;2023-03-15T11:30:45;0.50;;;0.50;;
11171;SDS011;5642;50.830;12.082;2023-03-15T11:36:21;0.47;;;0.47;;
11171;SDS011;5642;50.830;12.082;2023-03-15T11:38:58;0.50;;;0.50;;
11171;SDS011;5642;50.830;12.082;2023-03-15T11:46:56;0.25;;;0.25;;
11171;SDS011;5642;50.830;12.082;2023-03-15T11:52:23;0.50;;;0.50;;
11171;SDS011;5642;50.830;12.082;2023-03-15T11:54:53;1.35;;;0.60;;
11171;SDS011;5642;50.830;12.082;2023-03-15T11:57:35;0.47;;;0.47;;
11171;SDS011;5642;50.830;12.082;2023-03-15T12:06:10;0.73;;;0.60;;
11171;SDS011;5642;50.830;12.082;2023-03-15T12:08:58;0.70;;;0.70;;
11171;SDS011;5642;50.830;12.082;2023-03-15T12:16:27;0.65;;;0.65;;
11171;SDS011;5642;50.830;12.082;2023-03-15T12:19:02;0.60;;;0.60;;
11171;SDS011;5642;50.830;12.082;2023-03-15T12:21:39;0.57;;;0.57;;
11171;SDS011;5642;50.830;12.082;2023-03-15T12:26:49;0.88;;;0.70;;
11171;SDS011;5642;50.830;12.082;2023-03-15T12:29:26;1.75;;;0.75;;
11171;SDS011;5642;50.830;12.082;2023-03-15T12:31:58;0.70;;;0.70;;
11171;SDS011;5642;50.830;12.082;2023-03-15T12:37:05;0.63;;;0.55;;
11171;SDS011;5642;50.830;12.082;2023-03-15T12:39:48;0.63;;;0.63;;
11171;SDS011;5642;50.830;12.082;2023-03-15T12:53:18;0.75;;;0.60;;
11171;SDS011;5642;50.830;12.082;2023-03-15T12:55:55;0.75;;;0.75;;
11171;SDS011;5642;50.830;12.082;2023-03-15T12:58:31;0.70;;;0.70;;
11171;SDS011;5642;50.830;12.082;2023-03-15T13:01:03;0.70;;;0.70;;
11171;SDS011;5642;50.830;12.082;2023-03-15T13:03:33;0.60;;;0.60;;
11171;SDS011;5642;50.830;12.082;2023-03-15T13:09:10;0.60;;;0.60;;
11171;SDS011;5642;50.830;12.082;2023-03-15T13:14:36;0.60;;;0.60;;
11171;SDS011;5642;50.830;12.082;2023-03-15T13:25:32;0.52;;;0.50;;
11171;SDS011;5642;50.830;12.082;2023-03-15T13:31:09;0.60;;;0.60;;
11171;SDS011;5642;50.830;12.082;2023-03-15T13:33:40;0.50;;;0.40;;
11171;SDS011;5642;50.830;12.082;2023-03-15T13:36:11;0.65;;;0.60;;
11171;SDS011;5642;50.830;12.082;2023-03-15T13:38:40;0.60;;;0.60;;
11171;SDS011;5642;50.830;12.082;2023-03-15T13:41:18;0.68;;;0.68;;
11171;SDS011;5642;50.830;12.082;2023-03-15T13:43:50;1.05;;;0.80;;
11171;SDS011;5642;50.830;12.082;2023-03-15T13:46:19;0.65;;;0.65;;
11171;SDS011;5642;50.830;12.082;2023-03-15T13:48:48;1.08;;;0.98;;
11171;SDS011;5642;50.830;12.082;2023-03-15T13:51:21;0.75;;;0.75;;
11171;SDS011;5642;50.830;12.082;2023-03-15T13:53:52;0.90;;;0.82;;
11171;SDS011;5642;50.830;12.082;2023-03-15T13:56:26;1.20;;;1.10;;
11171;SDS011;5642;50.830;12.082;2023-03-15T13:58:55;0.77;;;0.77;;
11171;SDS011;5642;50.830;12.082;2023-03-15T14:01:23;1.00;;;0.90;;
11171;SDS011;5642;50.830;12.082;2023-03-15T14:03:58;0.90;;;0.70;;
11171;SDS011;5642;50.830;12.082;2023-03-15T14:10:05;0.80;;;0.80;;
11171;SDS011;5642;50.830;12.082;2023-03-15T14:12:44;0.80;;;0.80;;
11171;SDS011;5642;50.830;12.082;2023-03-15T14:15:21;0.90;;;0.90;;
11171;SDS011;5642;50.830;12.082;2023-03-15T14:20:43;0.90;;;0.90;;
11171;SDS011;5642;50.830;12.082;2023-03-15T14:23:21;1.00;;;0.93;;
11171;SDS011;5642;50.830;12.082;2023-03-15T14:25:50;0.80;;;0.80;;
11171;SDS011;5642;50.830;12.082;2023-03-15T14:28:26;0.90;;;0.90;;
11171;SDS011;5642;50.830;12.082;2023-03-15T14:30:54;0.88;;;0.88;;
11171;SDS011;5642;50.830;12.082;2023-03-15T14:33:27;0.70;;;0.70;;
11171;SDS011;5642;50.830;12.082;2023-03-15T14:35:56;0.73;;;0.73;;
11171;SDS011;5642;50.830;12.082;2023-03-15T14:38:35;0.70;;;0.70;;
11171;SDS011;5642;50.830;12.082;2023-03-15T14:44:02;1.00;;;0.73;;
11171;SDS011;5642;50.830;12.082;2023-03-15T14:46:31;1.90;;;0.98;;
11171;SDS011;5642;50.830;12.082;2023-03-15T14:49:01;0.70;;;0.70;;
11171;SDS011;5642;50.830;12.082;2023-03-15T14:51:27;0.80;;;0.80;;
11171;SDS011;5642;50.830;12.082;2023-03-15T14:53:55;0.70;;;0.70;;
11171;SDS011;5642;50.830;12.082;2023-03-15T14:56:23;0.93;;;0.75;;
11171;SDS011;5642;50.830;12.082;2023-03-15T14:58:52;0.80;;;0.80;;
11171;SDS011;5642;50.830;12.082;2023-03-15T15:01:19;0.93;;;0.70;;
11171;SDS011;5642;50.830;12.082;2023-03-15T15:03:53;1.15;;;0.80;;
11171;SDS011;5642;50.830;12.082;2023-03-15T15:06:24;1.52;;;0.70;;
11171;SDS011;5642;50.830;12.082;2023-03-15T15:08:54;0.70;;;0.70;;
11171;SDS011;5642;50.830;12.082;2023-03-15T15:11:23;0.88;;;0.70;;
11171;SDS011;5642;50.830;12.082;2023-03-15T15:13:53;0.70;;;0.70;;
11171;SDS011;5642;50.830;12.082;2023-03-15T15:16:20;0.98;;;0.88;;
11171;SDS011;5642;50.830;12.082;2023-03-15T15:18:51;1.23;;;0.60;;
11171;SDS011;5642;50.830;12.082;2023-03-15T15:21:19;0.70;;;0.65;;
11171;SDS011;5642;50.830;12.082;2023-03-15T15:23:51;0.77;;;0.77;;
11171;SDS011;5642;50.830;12.082;2023-03-15T15:26:20;1.58;;;0.93;;
11171;SDS011;5642;50.830;12.082;2023-03-15T15:28:47;0.75;;;0.70;;
11171;SDS011;5642;50.830;12.082;2023-03-15T15:31:15;0.60;;;0.60;;
11171;SDS011;5642;50.830;12.082;2023-03-15T15:33:49;0.55;;;0.55;;
11171;SDS011;5642;50.830;12.082;2023-03-15T15:36:23;0.88;;;0.47;;
11171;SDS011;5642;50.830;12.082;2023-03-15T15:38:54;0.88;;;0.73;;
11171;SDS011;5642;50.830;12.082;2023-03-15T15:41:21;0.60;;;0.60;;
11171;SDS011;5642;50.830;12.082;2023-03-15T15:43:50;0.60;;;0.60;;
11171;SDS011;5642;50.830;12.082;2023-03-15T15:46:16;0.70;;;0.70;;
11171;SDS011;5642;50.830;12.082;2023-03-15T15:48:45;0.70;;;0.70;;
11171;SDS011;5642;50.830;12.082;2023-03-15T15:51:24;0.60;;;0.60;;
11171;SDS011;5642;50.830;12.082;2023-03-15T15:53:59;0.70;;;0.70;;
11171;SDS011;5642;50.830;12.082;2023-03-15T15:59:01;0.52;;;0.52;;
11171;SDS011;5642;50.830;12.082;2023-03-15T16:01:29;0.60;;;0.60;;
11171;SDS011;5642;50.830;12.082;2023-03-15T16:03:59;0.70;;;0.60;;
11171;SDS011;5642;50.830;12.082;2023-03-15T16:06:26;0.50;;;0.40;;
11171;SDS011;5642;50.830;12.082;2023-03-15T16:08:54;1.13;;;0.60;;
11171;SDS011;5642;50.830;12.082;2023-03-15T16:11:21;0.40;;;0.40;;
11171;SDS011;5642;50.830;12.082;2023-03-15T16:13:48;0.60;;;0.52;;
11171;SDS011;5642;50.830;12.082;2023-03-15T16:16:16;1.08;;;0.60;;
11171;SDS011;5642;50.830;12.082;2023-03-15T16:18:43;0.50;;;0.50;;
11171;SDS011;5642;50.830;12.082;2023-03-15T16:21:44;0.52;;;0.50;;
11171;SDS011;5642;50.830;12.082;2023-03-15T16:24:14;0.50;;;0.50;;
11171;SDS011;5642;50.830;12.082;2023-03-15T16:26:46;0.45;;;0.40;;
11171;SDS011;5642;50.830;12.082;2023-03-15T16:29:15;0.82;;;0.63;;
11171;SDS011;5642;50.830;12.082;2023-03-15T16:31:45;0.40;;;0.40;;
11171;SDS011;5642;50.830;12.082;2023-03-15T16:34:12;0.50;;;0.50;;
11171;SDS011;5642;50.830;12.082;2023-03-15T16:36:40;0.57;;;0.57;;
11171;SDS011;5642;50.830;12.082;2023-03-15T16:39:12;0.52;;;0.40;;
11171;SDS011;5642;50.830;12.082;2023-03-15T16:41:39;0.70;;;0.60;;
11171;SDS011;5642;50.830;12.082;2023-03-15T16:44:13;0.52;;;0.52;;
11171;SDS011;5642;50.830;12.082;2023-03-15T16:46:42;0.65;;;0.65;;
11171;SDS011;5642;50.830;12.082;2023-03-15T16:49:12;0.65;;;0.50;;
11171;SDS011;5642;50.830;12.082;2023-03-15T16:51:48;0.38;;;0.38;;
11171;SDS011;5642;50.830;12.082;2023-03-15T16:54:18;0.65;;;0.43;;
11171;SDS011;5642;50.830;12.082;2023-03-15T16:56:50;0.68;;;0.68;;
11171;SDS011;5642;50.830;12.082;2023-03-15T16:59:16;0.50;;;0.50;;
11171;SDS011;5642;50.830;12.082;2023-03-15T17:01:43;0.77;;;0.52;;
11171;SDS011;5642;50.830;12.082;2023-03-15T17:04:10;0.57;;;0.57;;
11171;SDS011;5642;50.830;12.082;2023-03-15T17:06:36;1.17;;;1.08;;
11171;SDS011;5642;50.830;12.082;2023-03-15T17:09:04;0.82;;;0.82;;
11171;SDS011;5642;50.830;12.082;2023-03-15T17:11:41;0.70;;;0.70;;
11171;SDS011;5642;50.830;12.082;2023-03-15T17:14:12;0.70;;;0.63;;
11171;SDS011;5642;50.830;12.082;2023-03-15T17:16:42;0.80;;;0.80;;
11171;SDS011;5642;50.830;12.082;2023-03-15T17:19:10;1.05;;;0.70;;
11171;SDS011;5642;50.830;12.082;2023-03-15T17:21:37;0.68;;;0.68;;
11171;SDS011;5642;50.830;12.082;2023-03-15T17:24:05;1.00;;;0.73;;
11171;SDS011;5642;50.830;12.082;2023-03-15T17:26:32;0.93;;;0.70;;
11171;SDS011;5642;50.830;12.082;2023-03-15T17:28:59;0.70;;;0.70;;
11171;SDS011;5642;50.830;12.082;2023-03-15T17:31:28;1.15;;;0.80;;
11171;SDS011;5642;50.830;12.082;2023-03-15T17:33:56;1.02;;;0.88;;
11171;SDS011;5642;50.830;12.082;2023-03-15T17:36:23;1.27;;;0.70;;
11171;SDS011;5642;50.830;12.082;2023-03-15T17:38:52;1.30;;;1.20;;
11171;SDS011;5642;50.830;12.082;2023-03-15T17:41:20;3.92;;;3.20;;
11171;SDS011;5642;50.830;12.082;2023-03-15T17:43:49;3.13;;;2.70;;
11171;SDS011;5642;50.830;12.082;2023-03-15T17:46:16;2.30;;;2.08;;
11171;SDS011;5642;50.830;12.082;2023-03-15T17:48:43;2.28;;;2.05;;
11171;SDS011;5642;50.830;12.082;2023-03-15T17:51:16;1.83;;;1.65;;
11171;SDS011;5642;50.830;12.082;2023-03-15T17:53:46;1.70;;;1.50;;
11171;SDS011;5642;50.830;12.082;2023-03-15T17:56:15;2.00;;;1.30;;
11171;SDS011;5642;50.830;12.082;2023-03-15T17:58:41;1.60;;;1.50;;
11171;SDS011;5642;50.830;12.082;2023-03-15T18:01:15;4.03;;;1.80;;
11171;SDS011;5642;50.830;12.082;2023-03-15T18:03:44;2.50;;;1.90;;
11171;SDS011;5642;50.830;12.082;2023-03-15T18:06:12;2.08;;;1.88;;
11171;SDS011;5642;50.830;12.082;2023-03-15T18:08:39;2.45;;;2.20;;
11171;SDS011;5642;50.830;12.082;2023-03-15T18:13:54;2.50;;;2.20;;
11171;SDS011;5642;50.830;12.082;2023-03-15T18:16:24;2.33;;;1.70;;
11171;SDS011;5642;50.830;12.082;2023-03-15T18:18:50;1.50;;;1.40;;
11171;SDS011;5642;50.830;12.082;2023-03-15T18:21:21;1.25;;;1.15;;
11171;SDS011;5642;50.830;12.082;2023-03-15T18:23:49;1.40;;;1.30;;
11171;SDS011;5642;50.830;12.082;2023-03-15T18:26:16;6.47;;;4.65;;
11171;SDS011;5642;50.830;12.082;2023-03-15T18:28:45;3.63;;;2.80;;
11171;SDS011;5642;50.830;12.082;2023-03-15T18:31:17;3.17;;;2.43;;
11171;SDS011;5642;50.830;12.082;2023-03-15T18:33:49;2.50;;;2.30;;
11171;SDS011;5642;50.830;12.082;2023-03-15T18:36:16;1.80;;;1.67;;
11171;SDS011;5642;50.830;12.082;2023-03-15T18:38:44;1.60;;;1.23;;
11171;SDS011;5642;50.830;12.082;2023-03-15T18:41:17;1.57;;;1.47;;
11171;SDS011;5642;50.830;12.082;2023-03-15T18:43:51;1.87;;;1.40;;
11171;SDS011;5642;50.830;12.082;2023-03-15T18:46:23;2.55;;;2.15;;
11171;SDS011;5642;50.830;12.082;2023-03-15T18:48:50;2.55;;;2.28;;
11171;SDS011;5642;50.830;12.082;2023-03-15T18:51:22;4.13;;;3.67;;
11171;SDS011;5642;50.830;12.082;2023-03-15T18:53:50;3.17;;;2.60;;
11171;SDS011;5642;50.830;12.082;2023-03-15T18:56:24;2.97;;;2.67;;
11171;SDS011;5642;50.830;12.082;2023-03-15T18:59:00;3.27;;;2.70;;
11171;SDS011;5642;50.830;12.082;2023-03-15T19:01:27;2.90;;;2.60;;
11171;SDS011;5642;50.830;12.082;2023-03-15T19:03:53;2.43;;;2.07;;
11171;SDS011;5642;50.830;12.082;2023-03-15T19:06:20;2.20;;;2.00;;
11171;SDS011;5642;50.830;12.082;2023-03-15T19:08:48;1.80;;;1.70;;
11171;SDS011;5642;50.830;12.082;2023-03-15T19:11:18;1.73;;;1.63;;
11171;SDS011;5642;50.830;12.082;2023-03-15T19:13:46;1.57;;;1.47;;
11171;SDS011;5642;50.830;12.082;2023-03-15T19:16:16;1.85;;;1.50;;
11171;SDS011;5642;50.830;12.082;2023-03-15T19:18:48;1.73;;;1.40;;
11171;SDS011;5642;50.830;12.082;2023-03-15T19:21:16;1.70;;;1.60;;
11171;SDS011;5642;50.830;12.082;2023-03-15T19:23:43;1.50;;;1.40;;
11171;SDS011;5642;50.830;12.082;2023-03-15T19:26:10;1.90;;;1.70;;
11171;SDS011;5642;50.830;12.082;2023-03-15T19:28:38;1.53;;;1.43;;
11171;SDS011;5642;50.830;12.082;2023-03-15T19:31:05;1.60;;;1.40;;
11171;SDS011;5642;50.830;12.082;2023-03-15T19:33:32;1.90;;;1.70;;
11171;SDS011;5642;50.830;12.082;2023-03-15T19:36:03;2.20;;;2.00;;
11171;SDS011;5642;50.830;12.082;2023-03-15T19:38:30;2.53;;;1.83;;
11171;SDS011;5642;50.830;12.082;2023-03-15T19:41:01;3.10;;;2.47;;
11171;SDS011;5642;50.830;12.082;2023-03-15T19:43:29;3.47;;;2.77;;
11171;SDS011;5642;50.830;12.082;2023-03-15T19:45:57;4.10;;;3.23;;
11171;SDS011;5642;50.830;12.082;2023-03-15T19:48:26;4.13;;;3.47;;
11171;SDS011;5642;50.830;12.082;2023-03-15T19:50:52;4.43;;;3.57;;
11171;SDS011;5642;50.830;12.082;2023-03-15T19:53:19;4.47;;;3.67;;
11171;SDS011;5642;50.830;12.082;2023-03-15T19:55:45;5.07;;;3.60;;
11171;SDS011;5642;50.830;12.082;2023-03-15T19:58:14;4.80;;;3.90;;
11171;SDS011;5642;50.830;12.082;2023-03-15T20:00:40;4.90;;;3.63;;
11171;SDS011;5642;50.830;12.082;2023-03-15T20:03:07;3.30;;;3.00;;
11171;SDS011;5642;50.830;12.082;2023-03-15T20:05:34;3.10;;;2.80;;
11171;SDS011;5642;50.830;12.082;2023-03-15T20:08:02;3.80;;;2.87;;
11171;SDS011;5642;50.830;12.082;2023-03-15T20:10:29;3.10;;;2.50;;
11171;SDS011;5642;50.830;12.082;2023-03-15T20:12:55;2.90;;;2.60;;
11171;SDS011;5642;50.830;12.082;2023-03-15T20:15:24;3.33;;;2.60;;
11171;SDS011;5642;50.830;12.082;2023-03-15T20:17:51;3.13;;;2.83;;
11171;SDS011;5642;50.830;12.082;2023-03-15T20:20:17;3.37;;;3.00;;
11171;SDS011;5642;50.830;12.082;2023-03-15T20:22:44;4.17;;;3.70;;
11171;SDS011;5642;50.830;12.082;2023-03-15T20:25:11;3.90;;;3.10;;
11171;SDS011;5642;50.830;12.082;2023-03-15T20:27:39;3.97;;;3.40;;
11171;SDS011;5642;50.830;12.082;2023-03-15T20:30:06;4.07;;;3.67;;
11171;SDS011;5642;50.830;12.082;2023-03-15T20:32:34;3.90;;;3.47;;
11171;SDS011;5642;50.830;12.082;2023-03-15T20:35:02;4.13;;;3.60;;
11171;SDS011;5642;50.830;12.082;2023-03-15T20:37:34;4.83;;;3.90;;
11171;SDS011;5642;50.830;12.082;2023-03-15T20:40:02;3.23;;;2.93;;
11171;SDS011;5642;50.830;12.082;2023-03-15T20:42:38;3.83;;;3.07;;
11171;SDS011;5642;50.830;12.082;2023-03-15T20:45:07;4.20;;;3.43;;
11171;SDS011;5642;50.830;12.082;2023-03-15T20:47:35;3.43;;;3.13;;
11171;SDS011;5642;50.830;12.082;2023-03-15T20:50:03;3.47;;;3.10;;
11171;SDS011;5642;50.830;12.082;2023-03-15T20:52:32;3.40;;;2.87;;
11171;SDS011;5642;50.830;12.082;2023-03-15T20:55:00;3.33;;;2.67;;
11171;SDS011;5642;50.830;12.082;2023-03-15T20:57:29;3.23;;;2.60;;
11171;SDS011;5642;50.830;12.082;2023-03-15T20:59:57;3.10;;;2.73;;
11171;SDS011;5642;50.830;12.082;2023-03-15T21:02:24;2.83;;;2.63;;
11171;SDS011;5642;50.830;12.082;2023-03-15T21:04:52;3.30;;;3.00;;
11171;SDS011;5642;50.830;12.082;2023-03-15T21:07:19;5.40;;;2.97;;
11171;SDS011;5642;50.830;12.082;2023-03-15T21:09:53;3.63;;;3.20;;
11171;SDS011;5642;50.830;12.082;2023-03-15T21:12:24;2.93;;;2.63;;
11171;SDS011;5642;50.830;12.082;2023-03-15T21:14:51;3.30;;;3.00;;
11171;SDS011;5642;50.830;12.082;2023-03-15T21:17:20;3.37;;;2.77;;
11171;SDS011;5642;50.830;12.082;2023-03-15T21:19:46;3.20;;;2.87;;
11171;SDS011;5642;50.830;12.082;2023-03-15T21:22:13;3.10;;;2.80;;
11171;SDS011;5642;50.830;12.082;2023-03-15T21:24:41;3.03;;;2.70;;
11171;SDS011;5642;50.830;12.082;2023-03-15T21:27:08;3.90;;;3.07;;
11171;SDS011;5642;50.830;12.082;2023-03-15T21:29:37;3.20;;;2.90;;
11171;SDS011;5642;50.830;12.082;2023-03-15T21:32:07;4.57;;;2.87;;
11171;SDS011;5642;50.830;12.082;2023-03-15T21:34:35;3.00;;;2.70;;
11171;SDS011;5642;50.830;12.082;2023-03-15T21:37:02;3.07;;;2.57;;
11171;SDS011;5642;50.830;12.082;2023-03-15T21:39:30;3.07;;;2.47;;
11171;SDS011;5642;50.830;12.082;2023-03-15T21:41:57;3.47;;;2.57;;
11171;SDS011;5642;50.830;12.082;2023-03-15T21:44:25;2.80;;;2.40;;
11171;SDS011;5642;50.830;12.082;2023-03-15T21:46:52;2.57;;;2.30;;
11171;SDS011;5642;50.830;12.082;2023-03-15T21:49:20;2.80;;;2.60;;
11171;SDS011;5642;50.830;12.082;2023-03-15T21:51:47;3.50;;;2.70;;
11171;SDS011;5642;50.830;12.082;2023-03-15T21:54:14;2.70;;;2.33;;
11171;SDS011;5642;50.830;12.082;2023-03-15T21:56:42;2.47;;;2.17;;
11171;SDS011;5642;50.830;12.082;2023-03-15T21:59:10;2.40;;;2.20;;
11171;SDS011;5642;50.830;12.082;2023-03-15T22:01:37;2.20;;;2.00;;
11171;SDS011;5642;50.830;12.082;2023-03-15T22:04:06;2.20;;;2.00;;
11171;SDS011;5642;50.830;12.082;2023-03-15T22:06:34;2.20;;;2.00;;
11171;SDS011;5642;50.830;12.082;2023-03-15T22:09:01;1.87;;;1.77;;
11171;SDS011;5642;50.830;12.082;2023-03-15T22:11:29;2.37;;;2.17;;
11171;SDS011;5642;50.830;12.082;2023-03-15T22:13:55;2.10;;;1.90;;